createdAt,value
2022-09-23T00:02:42.913Z,8.30
2022-09-23T00:07:44.770Z,8.20
2022-09-23T00:12:46.464Z,8.20
2022-09-23T00:17:48.113Z,8.10
2022-09-23T00:22:49.747Z,8.10
2022-09-23T00:27:51.372Z,8.10
2022-09-23T00:32:53.056Z,8.00
2022-09-23T00:37:54.702Z,8.00
2022-09-23T00:42:56.354Z,8.00
2022-09-23T00:48:02.720Z,7.90
2022-09-23T00:53:11.281Z,7.90
2022-09-23T00:58:17.755Z,7.90
2022-09-23T01:03:19.800Z,7.80
2022-09-23T01:08:23.510Z,7.80
2022-09-23T01:13:32.183Z,7.80
2022-09-23T01:19:08.783Z,7.80
2022-09-23T01:24:53.001Z,7.80
2022-09-23T01:30:14.126Z,7.80
2022-09-23T01:35:17.093Z,7.70
2022-09-23T01:40:47.964Z,7.70
2022-09-23T01:45:54.485Z,7.70
2022-09-23T01:51:08.516Z,7.60
2022-09-23T01:56:28.724Z,7.60
2022-09-23T02:01:37.720Z,7.60
2022-09-23T02:06:48.566Z,7.60
2022-09-23T02:11:53.834Z,7.60
2022-09-23T02:17:01.324Z,7.60
2022-09-23T02:22:11.968Z,7.50
2022-09-23T02:27:47.324Z,7.50
2022-09-23T02:32:54.156Z,7.50
2022-09-23T02:38:26.703Z,7.40
2022-09-23T02:43:39.137Z,7.40
2022-09-23T02:49:07.251Z,7.40
2022-09-23T02:54:14.541Z,7.40
2022-09-23T02:59:20.909Z,7.40
2022-09-23T03:04:31.508Z,7.30
2022-09-23T03:09:41.130Z,7.30
2022-09-23T03:14:57.593Z,7.20
2022-09-23T03:20:09.297Z,7.20
2022-09-23T03:25:15.996Z,7.10
2022-09-23T03:30:18.452Z,7.10
2022-09-23T03:35:24.072Z,7.10
2022-09-23T03:40:39.248Z,7.00
2022-09-23T03:45:42.560Z,7.00
2022-09-23T03:50:44.534Z,6.90
2022-09-23T03:55:46.567Z,6.90
2022-09-23T04:00:49.671Z,6.90
2022-09-23T04:05:51.807Z,6.90
2022-09-23T04:10:58.602Z,6.90
2022-09-23T04:16:00.329Z,6.80
2022-09-23T04:21:02.455Z,6.80
2022-09-23T04:26:05.767Z,6.80
2022-09-23T04:31:09.527Z,6.80
2022-09-23T04:36:11.255Z,6.80
2022-09-23T04:41:13.509Z,6.80
2022-09-23T04:46:16.321Z,6.70
2022-09-23T04:51:20.872Z,6.80
2022-09-23T04:56:24.994Z,6.80
2022-09-23T05:01:29.067Z,6.80
2022-09-23T05:06:32.947Z,6.90
2022-09-23T05:11:35.129Z,6.90
2022-09-23T05:16:36.857Z,6.90
2022-09-23T05:21:39.096Z,6.90
2022-09-23T05:26:40.852Z,7.00
2022-09-23T05:31:42.636Z,7.10
2022-09-23T05:36:44.452Z,7.10
2022-09-23T05:41:46.438Z,7.20
2022-09-23T05:46:48.209Z,7.30
2022-09-23T05:51:49.930Z,7.30
2022-09-23T05:56:51.550Z,7.40
2022-09-23T06:01:56.296Z,7.50
2022-09-23T06:07:02.808Z,7.60
2022-09-23T06:12:06.318Z,7.70
2022-09-23T06:17:08.015Z,7.80
2022-09-23T06:22:11.033Z,7.90
2022-09-23T06:27:13.394Z,8.00
2022-09-23T06:32:15.006Z,8.10
2022-09-23T06:37:20.170Z,8.20
2022-09-23T06:42:22.192Z,8.40
2022-09-23T06:47:23.806Z,8.60
2022-09-23T06:52:26.572Z,8.80
2022-09-23T06:57:33.065Z,9.10
2022-09-23T07:02:35.375Z,9.30
2022-09-23T07:07:38.226Z,9.60
2022-09-23T07:12:39.845Z,9.80
2022-09-23T07:17:42.900Z,10.00
2022-09-23T07:22:50.026Z,10.20
2022-09-23T07:27:51.725Z,10.40
2022-09-23T07:32:53.710Z,10.50
2022-09-23T07:37:55.443Z,10.70
2022-09-23T07:42:57.091Z,10.80
2022-09-23T07:47:58.789Z,10.90
2022-09-23T07:53:02.907Z,11.00
2022-09-23T07:58:04.810Z,11.20
2022-09-23T08:03:06.480Z,11.30
2022-09-23T08:08:08.531Z,11.50
2022-09-23T08:13:11.047Z,11.60
2022-09-23T08:18:12.641Z,11.80
2022-09-23T08:23:15.706Z,12.00
2022-09-23T08:28:19.077Z,12.20
2022-09-23T08:33:23.512Z,12.40
2022-09-23T08:38:25.577Z,12.60
2022-09-23T08:43:29.704Z,12.80
2022-09-23T08:48:36.323Z,13.10
2022-09-23T08:53:38.384Z,13.40
2022-09-23T08:58:58.248Z,13.50
2022-09-23T09:04:40.248Z,13.80
2022-09-23T09:10:03.392Z,13.80
2022-09-23T09:15:24.680Z,14.00
2022-09-23T09:20:59.784Z,14.10
2022-09-23T09:26:03.127Z,14.10
2022-09-23T09:31:28.652Z,14.30
2022-09-23T09:37:02.239Z,14.40
2022-09-23T09:42:07.473Z,14.60
2022-09-23T09:47:31.652Z,14.80
2022-09-23T09:52:33.421Z,14.90
2022-09-23T09:57:42.680Z,15.10
2022-09-23T10:02:44.902Z,15.30
2022-09-23T10:07:49.417Z,15.50
2022-09-23T10:12:52.169Z,15.70
2022-09-23T10:17:54.354Z,16.00
2022-09-23T10:22:56.710Z,16.30
2022-09-23T10:27:58.399Z,16.10
2022-09-23T10:33:00.094Z,16.20
2022-09-23T10:38:01.839Z,16.30
2022-09-23T10:43:55.837Z,16.50
2022-09-23T10:49:12.331Z,16.70
2022-09-23T10:54:21.846Z,16.70
2022-09-23T10:59:56.194Z,16.90
2022-09-23T11:05:19.795Z,17.00
2022-09-23T11:10:48.636Z,16.90
2022-09-23T11:16:08.780Z,16.80
2022-09-23T11:21:32.121Z,16.80
2022-09-23T11:27:05.212Z,16.70
2022-09-23T11:32:40.600Z,16.70
2022-09-23T11:38:10.833Z,16.70
2022-09-23T11:43:25.692Z,16.60
2022-09-23T11:48:35.065Z,16.90
2022-09-23T11:53:36.646Z,17.20
2022-09-23T11:58:53.979Z,17.40
2022-09-23T12:04:26.031Z,17.60
2022-09-23T12:09:57.618Z,17.80
2022-09-23T12:15:17.620Z,18.00
2022-09-23T12:21:05.194Z,18.40
2022-09-23T12:26:18.412Z,18.60
2022-09-23T12:31:30.605Z,18.30
2022-09-23T12:36:35.303Z,18.10
2022-09-23T12:41:41.354Z,18.40
2022-09-23T12:46:45.882Z,18.80
2022-09-23T12:52:12.564Z,18.60
2022-09-23T12:57:39.947Z,18.40
2022-09-23T13:02:47.704Z,18.30
2022-09-23T13:07:50.884Z,18.30
2022-09-23T13:12:54.359Z,18.60
2022-09-23T13:18:20.745Z,18.80
2022-09-23T13:23:32.929Z,19.00
2022-09-23T13:28:53.695Z,19.10
2022-09-23T13:34:02.820Z,18.80
2022-09-23T13:39:24.490Z,18.90
2022-09-23T13:44:28.709Z,19.00
2022-09-23T13:49:35.131Z,18.80
2022-09-23T13:54:49.254Z,19.40
2022-09-23T13:59:51.265Z,20.20
2022-09-23T14:05:28.952Z,20.60
2022-09-23T14:10:31.276Z,20.40
2022-09-23T14:15:37.145Z,20.40
2022-09-23T14:20:50.157Z,20.30
2022-09-23T14:25:53.072Z,20.10
2022-09-23T14:30:57.771Z,20.10
2022-09-23T14:36:33.810Z,20.30
2022-09-23T14:41:38.690Z,20.70
2022-09-23T14:46:50.079Z,20.60
2022-09-23T14:52:02.789Z,20.50
2022-09-23T14:57:31.784Z,19.80
2022-09-23T15:02:36.478Z,19.50
2022-09-23T15:07:38.569Z,20.00
2022-09-23T15:12:41.263Z,20.50
2022-09-23T15:17:43.631Z,20.60
2022-09-23T15:22:50.588Z,20.20
2022-09-23T15:28:03.039Z,20.00
2022-09-23T15:33:05.420Z,20.10
2022-09-23T15:38:09.411Z,20.70
2022-09-23T15:43:24.414Z,20.80
2022-09-23T15:48:39.322Z,20.70
2022-09-23T15:53:41.057Z,19.70
2022-09-23T15:58:42.797Z,19.30
2022-09-23T16:03:44.425Z,19.20
2022-09-23T16:08:46.895Z,19.10
2022-09-23T16:13:48.623Z,18.80
2022-09-23T16:18:53.385Z,18.60
2022-09-23T16:23:57.239Z,18.40
2022-09-23T16:28:59.654Z,18.30
2022-09-23T16:34:02.244Z,18.00
2022-09-23T16:39:07.997Z,17.80
2022-09-23T16:44:10.675Z,17.60
2022-09-23T16:49:12.467Z,17.30
2022-09-23T16:54:14.216Z,17.00
2022-09-23T16:59:16.592Z,16.80
2022-09-23T17:04:19.436Z,16.50
2022-09-23T17:09:23.249Z,16.30
2022-09-23T17:14:26.424Z,16.10
2022-09-23T17:19:28.173Z,15.90
2022-09-23T17:24:29.815Z,15.70
2022-09-23T17:29:31.471Z,15.50
2022-09-23T17:34:33.399Z,15.40
2022-09-23T17:39:35.159Z,15.10
2022-09-23T17:44:36.791Z,14.90
2022-09-23T17:49:38.419Z,14.80
2022-09-23T17:54:40.031Z,14.60
2022-09-23T17:59:41.702Z,14.60
2022-09-23T18:04:43.332Z,14.50
2022-09-23T18:09:45.052Z,14.30
2022-09-23T18:14:48.253Z,14.30
2022-09-23T18:19:50.294Z,14.20
2022-09-23T18:24:51.884Z,14.10
2022-09-23T18:29:53.604Z,14.00
2022-09-23T18:34:55.388Z,13.90
2022-09-23T18:39:57.150Z,13.60
2022-09-23T18:44:58.818Z,13.70
2022-09-23T18:50:18.942Z,13.60
2022-09-23T18:55:20.561Z,13.50
2022-09-23T19:00:22.200Z,13.40
2022-09-23T19:05:23.930Z,13.40
2022-09-23T19:10:25.567Z,13.30
2022-09-23T19:15:27.223Z,13.30
2022-09-23T19:20:29.092Z,13.30
2022-09-23T19:25:30.686Z,13.30
2022-09-23T19:30:32.392Z,13.30
2022-09-23T19:35:34.031Z,13.40
2022-09-23T19:40:37.108Z,13.40
2022-09-23T19:45:39.143Z,13.40
2022-09-23T19:50:41.485Z,13.50
2022-09-23T19:55:44.220Z,13.50
2022-09-23T20:00:45.887Z,13.40
2022-09-23T20:05:57.794Z,13.50
2022-09-23T20:10:59.421Z,13.40
2022-09-23T20:16:01.408Z,13.40
2022-09-23T20:21:03.953Z,13.40
2022-09-23T20:26:24.949Z,13.50
2022-09-23T20:31:28.517Z,13.60
2022-09-23T20:36:30.185Z,13.60
2022-09-23T20:41:37.260Z,13.50
2022-09-23T20:46:41.881Z,13.50
2022-09-23T20:51:48.105Z,13.50
2022-09-23T20:56:49.810Z,13.50
2022-09-23T21:01:55.422Z,13.40
2022-09-23T21:06:58.121Z,13.40
2022-09-23T21:11:59.845Z,13.40
2022-09-23T21:17:01.466Z,13.40
2022-09-23T21:22:03.158Z,13.40
2022-09-23T21:27:04.827Z,13.40
2022-09-23T21:32:06.614Z,13.30
2022-09-23T21:37:08.325Z,13.30
2022-09-23T21:42:12.004Z,13.20
2022-09-23T21:47:13.748Z,13.20
2022-09-23T21:52:15.561Z,13.10
2022-09-23T21:57:17.235Z,13.10
2022-09-23T22:02:18.907Z,13.10
2022-09-23T22:07:20.559Z,13.00
2022-09-23T22:12:22.165Z,13.00
2022-09-23T22:17:23.855Z,12.80
2022-09-23T22:22:25.592Z,12.80
2022-09-23T22:27:27.294Z,12.70
2022-09-23T22:32:40.945Z,12.60
2022-09-23T22:37:42.572Z,12.60
2022-09-23T22:42:44.714Z,12.50
2022-09-23T22:47:46.338Z,12.50
2022-09-23T22:52:47.969Z,12.50
2022-09-23T22:57:51.512Z,12.40
2022-09-23T23:02:54.557Z,12.40
2022-09-23T23:07:57.496Z,12.40
2022-09-23T23:12:59.134Z,12.40
2022-09-23T23:18:00.760Z,12.30
2022-09-23T23:23:02.702Z,12.30
2022-09-23T23:28:05.747Z,12.30
2022-09-23T23:33:07.436Z,12.20
2022-09-23T23:38:11.215Z,12.10
2022-09-23T23:43:13.374Z,12.10
2022-09-23T23:48:15.000Z,12.00
2022-09-23T23:53:19.214Z,12.00
2022-09-23T23:58:20.891Z,11.90
